sensor_id;sensor_type;location;lat;lon;timestamp;P1;durP1;ratioP1;P2;durP2;ratioP2
22660;SDS011;11497;52.222;21.246;2024-03-22T00:02:16;55.25;;;32.50;;
22660;SDS011;11497;52.222;21.246;2024-03-22T00:04:43;56.85;;;33.53;;
22660;SDS011;11497;52.222;21.246;2024-03-22T00:07:10;61.72;;;33.45;;
22660;SDS011;11497;52.222;21.246;2024-03-22T00:09:37;60.00;;;33.25;;
22660;SDS011;11497;52.222;21.246;2024-03-22T00:12:04;61.28;;;33.00;;
22660;SDS011;11497;52.222;21.246;2024-03-22T00:14:31;60.80;;;32.45;;
22660;SDS011;11497;52.222;21.246;2024-03-22T00:16:58;61.10;;;33.75;;
22660;SDS011;11497;52.222;21.246;2024-03-22T00:19:25;59.90;;;33.45;;
22660;SDS011;11497;52.222;21.246;2024-03-22T00:21:52;65.22;;;33.50;;
22660;SDS011;11497;52.222;21.246;2024-03-22T00:24:19;65.72;;;34.28;;
22660;SDS011;11497;52.222;21.246;2024-03-22T00:26:46;74.07;;;35.13;;
22660;SDS011;11497;52.222;21.246;2024-03-22T00:29:14;64.05;;;35.42;;
22660;SDS011;11497;52.222;21.246;2024-03-22T00:31:41;65.75;;;36.42;;
22660;SDS011;11497;52.222;21.246;2024-03-22T00:34:09;66.22;;;35.15;;
22660;SDS011;11497;52.222;21.246;2024-03-22T00:36:35;67.10;;;35.33;;
22660;SDS011;11497;52.222;21.246;2024-03-22T00:39:02;69.03;;;36.00;;
22660;SDS011;11497;52.222;21.246;2024-03-22T00:41:29;65.80;;;36.38;;
22660;SDS011;11497;52.222;21.246;2024-03-22T00:43:56;72.07;;;36.92;;
22660;SDS011;11497;52.222;21.246;2024-03-22T00:46:24;68.47;;;36.42;;
22660;SDS011;11497;52.222;21.246;2024-03-22T00:48:51;69.38;;;37.35;;
22660;SDS011;11497;52.222;21.246;2024-03-22T00:51:17;69.07;;;36.53;;
22660;SDS011;11497;52.222;21.246;2024-03-22T00:53:44;73.30;;;38.38;;
22660;SDS011;11497;52.222;21.246;2024-03-22T00:56:11;76.15;;;39.03;;
22660;SDS011;11497;52.222;21.246;2024-03-22T00:58:38;72.50;;;39.42;;
22660;SDS011;11497;52.222;21.246;2024-03-22T01:01:05;73.05;;;38.40;;
22660;SDS011;11497;52.222;21.246;2024-03-22T01:03:32;73.32;;;37.55;;
22660;SDS011;11497;52.222;21.246;2024-03-22T01:05:59;70.32;;;37.85;;
22660;SDS011;11497;52.222;21.246;2024-03-22T01:08:26;71.28;;;38.83;;
22660;SDS011;11497;52.222;21.246;2024-03-22T01:10:53;71.00;;;37.72;;
22660;SDS011;11497;52.222;21.246;2024-03-22T01:13:20;74.15;;;39.58;;
22660;SDS011;11497;52.222;21.246;2024-03-22T01:15:47;72.90;;;40.17;;
22660;SDS011;11497;52.222;21.246;2024-03-22T01:18:14;74.55;;;38.15;;
22660;SDS011;11497;52.222;21.246;2024-03-22T01:20:41;75.88;;;40.65;;
22660;SDS011;11497;52.222;21.246;2024-03-22T01:23:09;71.80;;;40.17;;
22660;SDS011;11497;52.222;21.246;2024-03-22T01:25:36;74.97;;;41.42;;
22660;SDS011;11497;52.222;21.246;2024-03-22T01:28:03;80.40;;;41.97;;
22660;SDS011;11497;52.222;21.246;2024-03-22T01:30:30;79.55;;;41.53;;
22660;SDS011;11497;52.222;21.246;2024-03-22T01:32:59;82.32;;;42.42;;
22660;SDS011;11497;52.222;21.246;2024-03-22T01:35:26;75.72;;;40.92;;
22660;SDS011;11497;52.222;21.246;2024-03-22T01:37:53;80.88;;;42.75;;
22660;SDS011;11497;52.222;21.246;2024-03-22T01:40:20;79.43;;;43.00;;
22660;SDS011;11497;52.222;21.246;2024-03-22T01:42:47;75.63;;;43.40;;
22660;SDS011;11497;52.222;21.246;2024-03-22T01:45:14;75.38;;;42.20;;
22660;SDS011;11497;52.222;21.246;2024-03-22T01:47:41;73.63;;;40.58;;
22660;SDS011;11497;52.222;21.246;2024-03-22T01:50:08;76.80;;;41.58;;
22660;SDS011;11497;52.222;21.246;2024-03-22T01:52:38;77.68;;;42.90;;
22660;SDS011;11497;52.222;21.246;2024-03-22T01:55:06;81.57;;;42.40;;
22660;SDS011;11497;52.222;21.246;2024-03-22T01:57:34;72.75;;;40.50;;
22660;SDS011;11497;52.222;21.246;2024-03-22T02:00:01;73.63;;;41.60;;
22660;SDS011;11497;52.222;21.246;2024-03-22T02:02:39;79.18;;;42.08;;
22660;SDS011;11497;52.222;21.246;2024-03-22T02:05:13;85.40;;;44.08;;
22660;SDS011;11497;52.222;21.246;2024-03-22T02:07:47;85.40;;;43.95;;
22660;SDS011;11497;52.222;21.246;2024-03-22T02:10:14;85.82;;;44.10;;
22660;SDS011;11497;52.222;21.246;2024-03-22T02:12:42;77.75;;;42.28;;
22660;SDS011;11497;52.222;21.246;2024-03-22T02:15:09;83.05;;;43.72;;
22660;SDS011;11497;52.222;21.246;2024-03-22T02:17:36;85.40;;;46.28;;
22660;SDS011;11497;52.222;21.246;2024-03-22T02:20:03;86.32;;;44.63;;
22660;SDS011;11497;52.222;21.246;2024-03-22T02:22:31;84.90;;;44.80;;
22660;SDS011;11497;52.222;21.246;2024-03-22T02:24:58;81.22;;;44.08;;
22660;SDS011;11497;52.222;21.246;2024-03-22T02:27:25;83.78;;;44.13;;
22660;SDS011;11497;52.222;21.246;2024-03-22T02:29:52;90.68;;;44.80;;
22660;SDS011;11497;52.222;21.246;2024-03-22T02:32:19;88.72;;;47.40;;
22660;SDS011;11497;52.222;21.246;2024-03-22T02:34:46;84.38;;;45.25;;
22660;SDS011;11497;52.222;21.246;2024-03-22T02:37:13;97.38;;;48.00;;
22660;SDS011;11497;52.222;21.246;2024-03-22T02:39:40;90.05;;;48.08;;
22660;SDS011;11497;52.222;21.246;2024-03-22T02:42:07;91.30;;;46.00;;
22660;SDS011;11497;52.222;21.246;2024-03-22T02:44:34;100.80;;;48.80;;
22660;SDS011;11497;52.222;21.246;2024-03-22T02:47:04;96.00;;;48.60;;
22660;SDS011;11497;52.222;21.246;2024-03-22T02:49:31;98.38;;;51.25;;
22660;SDS011;11497;52.222;21.246;2024-03-22T02:51:58;98.57;;;50.05;;
22660;SDS011;11497;52.222;21.246;2024-03-22T02:54:25;95.38;;;50.35;;
22660;SDS011;11497;52.222;21.246;2024-03-22T02:56:52;103.13;;;50.53;;
22660;SDS011;11497;52.222;21.246;2024-03-22T02:59:19;100.18;;;50.00;;
22660;SDS011;11497;52.222;21.246;2024-03-22T03:01:46;119.40;;;53.42;;
22660;SDS011;11497;52.222;21.246;2024-03-22T03:04:13;118.32;;;52.65;;
22660;SDS011;11497;52.222;21.246;2024-03-22T03:06:40;115.38;;;53.42;;
22660;SDS011;11497;52.222;21.246;2024-03-22T03:09:07;129.38;;;52.53;;
22660;SDS011;11497;52.222;21.246;2024-03-22T03:11:37;114.40;;;52.78;;
22660;SDS011;11497;52.222;21.246;2024-03-22T03:14:05;163.98;;;54.45;;
22660;SDS011;11497;52.222;21.246;2024-03-22T03:16:32;152.02;;;55.08;;
22660;SDS011;11497;52.222;21.246;2024-03-22T03:18:59;126.43;;;54.50;;
22660;SDS011;11497;52.222;21.246;2024-03-22T03:21:26;133.88;;;55.28;;
22660;SDS011;11497;52.222;21.246;2024-03-22T03:23:53;140.25;;;57.00;;
22660;SDS011;11497;52.222;21.246;2024-03-22T03:26:20;129.77;;;51.78;;
22660;SDS011;11497;52.222;21.246;2024-03-22T03:28:47;142.95;;;53.85;;
22660;SDS011;11497;52.222;21.246;2024-03-22T03:31:14;114.05;;;52.67;;
22660;SDS011;11497;52.222;21.246;2024-03-22T03:33:41;121.45;;;52.55;;
22660;SDS011;11497;52.222;21.246;2024-03-22T03:36:08;133.25;;;55.15;;
22660;SDS011;11497;52.222;21.246;2024-03-22T03:38:35;125.93;;;52.30;;
22660;SDS011;11497;52.222;21.246;2024-03-22T03:41:03;127.63;;;52.67;;
22660;SDS011;11497;52.222;21.246;2024-03-22T03:43:30;121.93;;;51.17;;
22660;SDS011;11497;52.222;21.246;2024-03-22T03:45:57;129.50;;;52.25;;
22660;SDS011;11497;52.222;21.246;2024-03-22T03:48:24;134.65;;;52.53;;
22660;SDS011;11497;52.222;21.246;2024-03-22T03:50:54;129.68;;;50.40;;
22660;SDS011;11497;52.222;21.246;2024-03-22T03:53:25;123.93;;;48.42;;
22660;SDS011;11497;52.222;21.246;2024-03-22T03:55:52;108.78;;;45.42;;
22660;SDS011;11497;52.222;21.246;2024-03-22T03:58:18;112.60;;;47.40;;
22660;SDS011;11497;52.222;21.246;2024-03-22T04:00:46;117.85;;;47.40;;
22660;SDS011;11497;52.222;21.246;2024-03-22T04:03:13;122.32;;;47.67;;
22660;SDS011;11497;52.222;21.246;2024-03-22T04:05:41;119.78;;;47.40;;
22660;SDS011;11497;52.222;21.246;2024-03-22T04:08:07;120.63;;;47.55;;
22660;SDS011;11497;52.222;21.246;2024-03-22T04:10:34;117.60;;;47.55;;
22660;SDS011;11497;52.222;21.246;2024-03-22T04:13:01;119.28;;;47.75;;
22660;SDS011;11497;52.222;21.246;2024-03-22T04:15:28;123.38;;;47.53;;
22660;SDS011;11497;52.222;21.246;2024-03-22T04:17:59;106.07;;;45.00;;
22660;SDS011;11497;52.222;21.246;2024-03-22T04:20:26;112.82;;;45.00;;
22660;SDS011;11497;52.222;21.246;2024-03-22T04:22:53;108.72;;;45.53;;
22660;SDS011;11497;52.222;21.246;2024-03-22T04:25:20;105.57;;;42.53;;
22660;SDS011;11497;52.222;21.246;2024-03-22T04:27:47;101.90;;;42.58;;
22660;SDS011;11497;52.222;21.246;2024-03-22T04:30:14;104.28;;;43.28;;
22660;SDS011;11497;52.222;21.246;2024-03-22T04:32:41;108.38;;;43.13;;
22660;SDS011;11497;52.222;21.246;2024-03-22T04:35:08;98.47;;;42.13;;
22660;SDS011;11497;52.222;21.246;2024-03-22T04:37:35;103.57;;;42.53;;
22660;SDS011;11497;52.222;21.246;2024-03-22T04:40:02;93.35;;;41.53;;
22660;SDS011;11497;52.222;21.246;2024-03-22T04:42:29;103.90;;;44.15;;
22660;SDS011;11497;52.222;21.246;2024-03-22T04:44:56;107.22;;;43.15;;
22660;SDS011;11497;52.222;21.246;2024-03-22T04:47:23;107.10;;;41.78;;
22660;SDS011;11497;52.222;21.246;2024-03-22T04:49:50;113.82;;;43.17;;
22660;SDS011;11497;52.222;21.246;2024-03-22T04:52:17;104.03;;;43.50;;
22660;SDS011;11497;52.222;21.246;2024-03-22T04:54:44;117.07;;;45.25;;
22660;SDS011;11497;52.222;21.246;2024-03-22T04:57:13;109.25;;;44.45;;
22660;SDS011;11497;52.222;21.246;2024-03-22T04:59:40;108.70;;;43.75;;
22660;SDS011;11497;52.222;21.246;2024-03-22T05:02:07;112.40;;;43.78;;
22660;SDS011;11497;52.222;21.246;2024-03-22T05:04:34;109.03;;;43.70;;
22660;SDS011;11497;52.222;21.246;2024-03-22T05:07:01;107.85;;;44.15;;
22660;SDS011;11497;52.222;21.246;2024-03-22T05:09:29;116.53;;;44.88;;
22660;SDS011;11497;52.222;21.246;2024-03-22T05:11:57;110.57;;;43.88;;
22660;SDS011;11497;52.222;21.246;2024-03-22T05:14:24;113.93;;;43.83;;
22660;SDS011;11497;52.222;21.246;2024-03-22T05:16:51;112.47;;;44.92;;
22660;SDS011;11497;52.222;21.246;2024-03-22T05:19:18;108.15;;;44.28;;
22660;SDS011;11497;52.222;21.246;2024-03-22T05:21:45;108.07;;;44.42;;
22660;SDS011;11497;52.222;21.246;2024-03-22T05:24:12;109.65;;;44.67;;
22660;SDS011;11497;52.222;21.246;2024-03-22T05:26:39;107.07;;;43.80;;
22660;SDS011;11497;52.222;21.246;2024-03-22T05:29:06;113.78;;;45.75;;
22660;SDS011;11497;52.222;21.246;2024-03-22T05:31:33;113.00;;;44.78;;
22660;SDS011;11497;52.222;21.246;2024-03-22T05:34:14;101.95;;;43.70;;
22660;SDS011;11497;52.222;21.246;2024-03-22T05:36:41;105.45;;;42.13;;
22660;SDS011;11497;52.222;21.246;2024-03-22T05:39:08;101.10;;;44.17;;
22660;SDS011;11497;52.222;21.246;2024-03-22T05:41:38;109.82;;;44.60;;
22660;SDS011;11497;52.222;21.246;2024-03-22T05:44:06;98.13;;;42.80;;
22660;SDS011;11497;52.222;21.246;2024-03-22T05:46:33;109.45;;;43.38;;
22660;SDS011;11497;52.222;21.246;2024-03-22T05:49:01;100.03;;;42.45;;
22660;SDS011;11497;52.222;21.246;2024-03-22T05:51:28;108.32;;;44.17;;
22660;SDS011;11497;52.222;21.246;2024-03-22T05:53:56;112.80;;;44.85;;
22660;SDS011;11497;52.222;21.246;2024-03-22T05:56:23;107.25;;;42.28;;
22660;SDS011;11497;52.222;21.246;2024-03-22T05:58:51;106.97;;;44.20;;
22660;SDS011;11497;52.222;21.246;2024-03-22T06:01:17;94.00;;;42.72;;
22660;SDS011;11497;52.222;21.246;2024-03-22T06:03:45;101.60;;;42.45;;
22660;SDS011;11497;52.222;21.246;2024-03-22T06:06:11;95.80;;;41.75;;
22660;SDS011;11497;52.222;21.246;2024-03-22T06:08:39;102.18;;;41.28;;
22660;SDS011;11497;52.222;21.246;2024-03-22T06:11:07;98.53;;;41.92;;
22660;SDS011;11497;52.222;21.246;2024-03-22T06:13:34;99.47;;;41.38;;
22660;SDS011;11497;52.222;21.246;2024-03-22T06:16:02;102.25;;;43.05;;
22660;SDS011;11497;52.222;21.246;2024-03-22T06:18:29;90.28;;;38.65;;
22660;SDS011;11497;52.222;21.246;2024-03-22T06:20:57;89.30;;;39.78;;
22660;SDS011;11497;52.222;21.246;2024-03-22T06:23:24;92.43;;;40.20;;
22660;SDS011;11497;52.222;21.246;2024-03-22T06:25:51;88.28;;;39.65;;
22660;SDS011;11497;52.222;21.246;2024-03-22T06:28:19;97.03;;;44.72;;
22660;SDS011;11497;52.222;21.246;2024-03-22T06:30:46;94.13;;;44.47;;
22660;SDS011;11497;52.222;21.246;2024-03-22T06:33:13;89.63;;;39.58;;
22660;SDS011;11497;52.222;21.246;2024-03-22T06:35:43;87.32;;;40.08;;
22660;SDS011;11497;52.222;21.246;2024-03-22T06:38:10;90.25;;;38.67;;
22660;SDS011;11497;52.222;21.246;2024-03-22T06:40:37;80.50;;;37.78;;
22660;SDS011;11497;52.222;21.246;2024-03-22T06:43:04;79.68;;;37.25;;
22660;SDS011;11497;52.222;21.246;2024-03-22T06:45:31;72.63;;;36.40;;
22660;SDS011;11497;52.222;21.246;2024-03-22T06:47:58;81.07;;;37.60;;
22660;SDS011;11497;52.222;21.246;2024-03-22T06:50:24;72.85;;;36.25;;
22660;SDS011;11497;52.222;21.246;2024-03-22T06:52:54;72.03;;;34.60;;
22660;SDS011;11497;52.222;21.246;2024-03-22T06:55:21;71.03;;;35.70;;
22660;SDS011;11497;52.222;21.246;2024-03-22T06:57:49;71.85;;;36.58;;
22660;SDS011;11497;52.222;21.246;2024-03-22T07:00:17;66.15;;;34.38;;
22660;SDS011;11497;52.222;21.246;2024-03-22T07:02:44;72.22;;;35.72;;
22660;SDS011;11497;52.222;21.246;2024-03-22T07:05:11;73.57;;;35.92;;
22660;SDS011;11497;52.222;21.246;2024-03-22T07:07:38;69.68;;;35.03;;
22660;SDS011;11497;52.222;21.246;2024-03-22T07:10:05;73.13;;;36.50;;
22660;SDS011;11497;52.222;21.246;2024-03-22T07:12:32;61.55;;;32.75;;
22660;SDS011;11497;52.222;21.246;2024-03-22T07:15:00;68.72;;;34.80;;
22660;SDS011;11497;52.222;21.246;2024-03-22T07:17:28;63.58;;;32.72;;
22660;SDS011;11497;52.222;21.246;2024-03-22T07:19:55;66.72;;;34.13;;
22660;SDS011;11497;52.222;21.246;2024-03-22T07:22:23;59.92;;;31.98;;
22660;SDS011;11497;52.222;21.246;2024-03-22T07:24:50;59.78;;;32.70;;
22660;SDS011;11497;52.222;21.246;2024-03-22T07:27:17;56.70;;;31.27;;
22660;SDS011;11497;52.222;21.246;2024-03-22T07:29:44;51.28;;;27.80;;
22660;SDS011;11497;52.222;21.246;2024-03-22T07:32:11;54.70;;;29.23;;
22660;SDS011;11497;52.222;21.246;2024-03-22T07:34:38;54.55;;;30.63;;
22660;SDS011;11497;52.222;21.246;2024-03-22T07:37:05;53.28;;;28.48;;
22660;SDS011;11497;52.222;21.246;2024-03-22T07:39:32;51.40;;;28.02;;
22660;SDS011;11497;52.222;21.246;2024-03-22T07:41:59;54.58;;;28.52;;
22660;SDS011;11497;52.222;21.246;2024-03-22T07:44:28;55.65;;;29.30;;
22660;SDS011;11497;52.222;21.246;2024-03-22T07:46:55;55.03;;;28.88;;
22660;SDS011;11497;52.222;21.246;2024-03-22T07:49:22;52.75;;;28.58;;
22660;SDS011;11497;52.222;21.246;2024-03-22T07:51:49;55.38;;;29.05;;
22660;SDS011;11497;52.222;21.246;2024-03-22T07:54:17;53.25;;;28.38;;
22660;SDS011;11497;52.222;21.246;2024-03-22T07:56:44;53.85;;;30.05;;
22660;SDS011;11497;52.222;21.246;2024-03-22T07:59:10;51.15;;;28.73;;
22660;SDS011;11497;52.222;21.246;2024-03-22T08:01:37;51.17;;;27.65;;
22660;SDS011;11497;52.222;21.246;2024-03-22T08:04:04;50.67;;;27.13;;
22660;SDS011;11497;52.222;21.246;2024-03-22T08:06:32;57.95;;;29.05;;
22660;SDS011;11497;52.222;21.246;2024-03-22T08:08:59;61.95;;;31.38;;
22660;SDS011;11497;52.222;21.246;2024-03-22T08:11:26;58.97;;;29.27;;
22660;SDS011;11497;52.222;21.246;2024-03-22T08:13:53;64.80;;;30.60;;
22660;SDS011;11497;52.222;21.246;2024-03-22T08:16:28;59.42;;;28.52;;
22660;SDS011;11497;52.222;21.246;2024-03-22T08:18:55;49.28;;;26.73;;
22660;SDS011;11497;52.222;21.246;2024-03-22T08:21:23;100.50;;;41.75;;
22660;SDS011;11497;52.222;21.246;2024-03-22T08:23:51;65.45;;;31.83;;
22660;SDS011;11497;52.222;21.246;2024-03-22T08:26:18;48.63;;;26.77;;
22660;SDS011;11497;52.222;21.246;2024-03-22T08:28:46;44.67;;;24.67;;
22660;SDS011;11497;52.222;21.246;2024-03-22T08:31:13;45.28;;;24.98;;
22660;SDS011;11497;52.222;21.246;2024-03-22T08:33:40;47.38;;;25.60;;
22660;SDS011;11497;52.222;21.246;2024-03-22T08:36:07;43.60;;;23.98;;
22660;SDS011;11497;52.222;21.246;2024-03-22T08:38:34;46.72;;;24.85;;
22660;SDS011;11497;52.222;21.246;2024-03-22T08:41:01;47.70;;;25.42;;
22660;SDS011;11497;52.222;21.246;2024-03-22T08:43:29;46.03;;;24.30;;
22660;SDS011;11497;52.222;21.246;2024-03-22T08:45:56;43.58;;;24.63;;
22660;SDS011;11497;52.222;21.246;2024-03-22T08:48:23;66.03;;;30.42;;
22660;SDS011;11497;52.222;21.246;2024-03-22T08:50:50;74.82;;;34.13;;
22660;SDS011;11497;52.222;21.246;2024-03-22T08:53:17;55.60;;;27.25;;
22660;SDS011;11497;52.222;21.246;2024-03-22T08:55:45;49.70;;;26.65;;
22660;SDS011;11497;52.222;21.246;2024-03-22T08:58:14;51.95;;;27.25;;
22660;SDS011;11497;52.222;21.246;2024-03-22T09:00:41;49.70;;;27.08;;
22660;SDS011;11497;52.222;21.246;2024-03-22T09:03:09;49.50;;;27.17;;
22660;SDS011;11497;52.222;21.246;2024-03-22T09:05:37;54.88;;;28.42;;
22660;SDS011;11497;52.222;21.246;2024-03-22T09:08:04;53.78;;;28.17;;
22660;SDS011;11497;52.222;21.246;2024-03-22T09:10:31;53.58;;;29.40;;
22660;SDS011;11497;52.222;21.246;2024-03-22T09:12:58;53.83;;;29.35;;
22660;SDS011;11497;52.222;21.246;2024-03-22T09:15:25;55.45;;;30.00;;
22660;SDS011;11497;52.222;21.246;2024-03-22T09:17:52;54.58;;;30.77;;
22660;SDS011;11497;52.222;21.246;2024-03-22T09:20:19;55.17;;;30.33;;
22660;SDS011;11497;52.222;21.246;2024-03-22T09:22:46;63.05;;;32.67;;
22660;SDS011;11497;52.222;21.246;2024-03-22T09:25:13;66.68;;;33.60;;
22660;SDS011;11497;52.222;21.246;2024-03-22T09:27:40;83.75;;;36.55;;
22660;SDS011;11497;52.222;21.246;2024-03-22T09:30:08;76.88;;;35.75;;
22660;SDS011;11497;52.222;21.246;2024-03-22T09:32:35;73.18;;;34.88;;
22660;SDS011;11497;52.222;21.246;2024-03-22T09:35:02;69.22;;;33.35;;
22660;SDS011;11497;52.222;21.246;2024-03-22T09:37:36;69.88;;;32.80;;
22660;SDS011;11497;52.222;21.246;2024-03-22T09:40:03;83.22;;;36.10;;
22660;SDS011;11497;52.222;21.246;2024-03-22T09:42:33;79.38;;;36.78;;
22660;SDS011;11497;52.222;21.246;2024-03-22T09:45:10;78.60;;;36.60;;
22660;SDS011;11497;52.222;21.246;2024-03-22T09:47:38;54.10;;;28.40;;
22660;SDS011;11497;52.222;21.246;2024-03-22T09:50:08;49.50;;;27.27;;
22660;SDS011;11497;52.222;21.246;2024-03-22T09:52:37;41.80;;;24.30;;
22660;SDS011;11497;52.222;21.246;2024-03-22T09:55:05;47.38;;;25.83;;
22660;SDS011;11497;52.222;21.246;2024-03-22T09:57:33;49.05;;;27.90;;
22660;SDS011;11497;52.222;21.246;2024-03-22T10:00:07;51.58;;;26.13;;
22660;SDS011;11497;52.222;21.246;2024-03-22T10:02:38;38.13;;;21.05;;
22660;SDS011;11497;52.222;21.246;2024-03-22T10:05:08;33.67;;;20.38;;
22660;SDS011;11497;52.222;21.246;2024-03-22T10:07:35;36.63;;;20.73;;
22660;SDS011;11497;52.222;21.246;2024-03-22T10:10:02;39.22;;;24.25;;
22660;SDS011;11497;52.222;21.246;2024-03-22T10:12:29;37.22;;;21.92;;
22660;SDS011;11497;52.222;21.246;2024-03-22T10:14:56;34.30;;;21.27;;
22660;SDS011;11497;52.222;21.246;2024-03-22T10:17:25;34.22;;;20.80;;
22660;SDS011;11497;52.222;21.246;2024-03-22T10:19:54;34.00;;;20.52;;
22660;SDS011;11497;52.222;21.246;2024-03-22T10:22:21;35.20;;;20.27;;
22660;SDS011;11497;52.222;21.246;2024-03-22T10:24:51;36.75;;;20.77;;
22660;SDS011;11497;52.222;21.246;2024-03-22T10:27:19;37.22;;;22.65;;
22660;SDS011;11497;52.222;21.246;2024-03-22T10:29:46;36.50;;;22.15;;
22660;SDS011;11497;52.222;21.246;2024-03-22T10:32:14;36.42;;;21.27;;
22660;SDS011;11497;52.222;21.246;2024-03-22T10:34:42;37.58;;;21.60;;
22660;SDS011;11497;52.222;21.246;2024-03-22T10:37:12;37.00;;;21.15;;
22660;SDS011;11497;52.222;21.246;2024-03-22T10:39:42;34.20;;;20.33;;
22660;SDS011;11497;52.222;21.246;2024-03-22T10:42:12;32.92;;;18.80;;
22660;SDS011;11497;52.222;21.246;2024-03-22T10:44:41;35.65;;;20.65;;
22660;SDS011;11497;52.222;21.246;2024-03-22T10:47:09;37.08;;;21.48;;
22660;SDS011;11497;52.222;21.246;2024-03-22T10:49:38;33.13;;;18.95;;
22660;SDS011;11497;52.222;21.246;2024-03-22T10:52:06;34.95;;;20.50;;
22660;SDS011;11497;52.222;21.246;2024-03-22T10:54:40;35.90;;;20.30;;
22660;SDS011;11497;52.222;21.246;2024-03-22T10:57:12;33.85;;;19.88;;
22660;SDS011;11497;52.222;21.246;2024-03-22T10:59:42;33.63;;;19.42;;
22660;SDS011;11497;52.222;21.246;2024-03-22T11:02:12;34.03;;;20.30;;
22660;SDS011;11497;52.222;21.246;2024-03-22T11:04:39;34.10;;;20.45;;
22660;SDS011;11497;52.222;21.246;2024-03-22T11:07:06;35.63;;;20.85;;
22660;SDS011;11497;52.222;21.246;2024-03-22T11:09:34;33.53;;;20.17;;
22660;SDS011;11497;52.222;21.246;2024-03-22T11:12:01;37.10;;;20.55;;
22660;SDS011;11497;52.222;21.246;2024-03-22T11:14:30;34.95;;;19.85;;
22660;SDS011;11497;52.222;21.246;2024-03-22T11:16:57;35.08;;;20.42;;
22660;SDS011;11497;52.222;21.246;2024-03-22T11:19:24;32.47;;;20.02;;
22660;SDS011;11497;52.222;21.246;2024-03-22T11:21:51;35.40;;;19.98;;
22660;SDS011;11497;52.222;21.246;2024-03-22T11:24:18;35.05;;;20.02;;
22660;SDS011;11497;52.222;21.246;2024-03-22T11:26:45;34.67;;;20.92;;
22660;SDS011;11497;52.222;21.246;2024-03-22T11:29:12;33.25;;;20.15;;
22660;SDS011;11497;52.222;21.246;2024-03-22T11:31:40;34.85;;;21.10;;
22660;SDS011;11497;52.222;21.246;2024-03-22T11:34:07;35.35;;;21.58;;
22660;SDS011;11497;52.222;21.246;2024-03-22T11:36:35;37.15;;;20.73;;
22660;SDS011;11497;52.222;21.246;2024-03-22T11:39:02;35.95;;;22.00;;
22660;SDS011;11497;52.222;21.246;2024-03-22T11:41:29;35.80;;;21.70;;
22660;SDS011;11497;52.222;21.246;2024-03-22T11:43:57;36.35;;;23.00;;
22660;SDS011;11497;52.222;21.246;2024-03-22T11:46:26;38.78;;;22.27;;
22660;SDS011;11497;52.222;21.246;2024-03-22T11:48:54;36.08;;;22.52;;
22660;SDS011;11497;52.222;21.246;2024-03-22T11:51:21;41.03;;;22.20;;
22660;SDS011;11497;52.222;21.246;2024-03-22T11:53:52;34.47;;;21.73;;
22660;SDS011;11497;52.222;21.246;2024-03-22T11:56:22;35.35;;;21.65;;
22660;SDS011;11497;52.222;21.246;2024-03-22T11:58:58;31.75;;;20.92;;
22660;SDS011;11497;52.222;21.246;2024-03-22T12:01:26;33.03;;;19.83;;
22660;SDS011;11497;52.222;21.246;2024-03-22T12:03:54;35.45;;;21.08;;
22660;SDS011;11497;52.222;21.246;2024-03-22T12:06:21;29.75;;;18.45;;
22660;SDS011;11497;52.222;21.246;2024-03-22T12:08:48;36.33;;;19.80;;
22660;SDS011;11497;52.222;21.246;2024-03-22T12:11:15;31.40;;;19.48;;
22660;SDS011;11497;52.222;21.246;2024-03-22T12:13:42;31.95;;;18.55;;
22660;SDS011;11497;52.222;21.246;2024-03-22T12:16:09;30.77;;;19.08;;
22660;SDS011;11497;52.222;21.246;2024-03-22T12:18:36;30.40;;;19.15;;
22660;SDS011;11497;52.222;21.246;2024-03-22T12:21:03;30.63;;;18.63;;
22660;SDS011;11497;52.222;21.246;2024-03-22T12:23:30;33.25;;;18.17;;
22660;SDS011;11497;52.222;21.246;2024-03-22T12:25:57;30.08;;;18.73;;
22660;SDS011;11497;52.222;21.246;2024-03-22T12:28:24;29.25;;;17.90;;
22660;SDS011;11497;52.222;21.246;2024-03-22T12:30:51;30.80;;;18.63;;
22660;SDS011;11497;52.222;21.246;2024-03-22T12:33:18;27.45;;;17.30;;
22660;SDS011;11497;52.222;21.246;2024-03-22T12:35:45;29.08;;;18.40;;
22660;SDS011;11497;52.222;21.246;2024-03-22T12:38:14;27.63;;;16.92;;
22660;SDS011;11497;52.222;21.246;2024-03-22T12:40:41;29.70;;;17.98;;
22660;SDS011;11497;52.222;21.246;2024-03-22T12:43:09;27.88;;;16.92;;
22660;SDS011;11497;52.222;21.246;2024-03-22T12:45:37;26.30;;;17.17;;
22660;SDS011;11497;52.222;21.246;2024-03-22T12:48:04;31.05;;;17.27;;
22660;SDS011;11497;52.222;21.246;2024-03-22T12:50:31;27.00;;;16.65;;
22660;SDS011;11497;52.222;21.246;2024-03-22T12:52:59;24.60;;;15.73;;
22660;SDS011;11497;52.222;21.246;2024-03-22T12:55:26;29.20;;;16.27;;
22660;SDS011;11497;52.222;21.246;2024-03-22T12:57:54;25.98;;;15.73;;
22660;SDS011;11497;52.222;21.246;2024-03-22T13:00:21;27.63;;;15.55;;
22660;SDS011;11497;52.222;21.246;2024-03-22T13:02:48;26.80;;;16.25;;
22660;SDS011;11497;52.222;21.246;2024-03-22T13:05:15;25.60;;;15.30;;
22660;SDS011;11497;52.222;21.246;2024-03-22T13:07:42;26.52;;;15.15;;
22660;SDS011;11497;52.222;21.246;2024-03-22T13:10:09;24.45;;;15.40;;
22660;SDS011;11497;52.222;21.246;2024-03-22T13:12:36;23.25;;;15.63;;
22660;SDS011;11497;52.222;21.246;2024-03-22T13:15:04;24.80;;;15.18;;
22660;SDS011;11497;52.222;21.246;2024-03-22T13:17:32;24.10;;;15.43;;
22660;SDS011;11497;52.222;21.246;2024-03-22T13:19:58;37.88;;;19.45;;
22660;SDS011;11497;52.222;21.246;2024-03-22T13:22:26;31.15;;;17.13;;
22660;SDS011;11497;52.222;21.246;2024-03-22T13:24:52;21.23;;;14.48;;
22660;SDS011;11497;52.222;21.246;2024-03-22T13:27:20;26.45;;;15.38;;
22660;SDS011;11497;52.222;21.246;2024-03-22T13:29:48;23.92;;;14.43;;
22660;SDS011;11497;52.222;21.246;2024-03-22T13:32:15;29.05;;;16.05;;
22660;SDS011;11497;52.222;21.246;2024-03-22T13:34:42;32.20;;;16.80;;
22660;SDS011;11497;52.222;21.246;2024-03-22T13:37:09;21.30;;;13.52;;
22660;SDS011;11497;52.222;21.246;2024-03-22T13:39:36;18.60;;;12.73;;
22660;SDS011;11497;52.222;21.246;2024-03-22T13:42:03;19.73;;;13.15;;
22660;SDS011;11497;52.222;21.246;2024-03-22T13:44:32;23.30;;;14.20;;
22660;SDS011;11497;52.222;21.246;2024-03-22T13:47:00;24.88;;;14.73;;
22660;SDS011;11497;52.222;21.246;2024-03-22T13:49:26;22.25;;;13.77;;
22660;SDS011;11497;52.222;21.246;2024-03-22T13:51:54;22.10;;;13.77;;
22660;SDS011;11497;52.222;21.246;2024-03-22T13:54:23;23.10;;;13.95;;
22660;SDS011;11497;52.222;21.246;2024-03-22T13:56:51;25.02;;;14.27;;
22660;SDS011;11497;52.222;21.246;2024-03-22T13:59:18;24.88;;;14.20;;
22660;SDS011;11497;52.222;21.246;2024-03-22T14:01:45;21.52;;;13.60;;
22660;SDS011;11497;52.222;21.246;2024-03-22T14:04:13;20.70;;;13.75;;
22660;SDS011;11497;52.222;21.246;2024-03-22T14:06:41;21.05;;;13.55;;
22660;SDS011;11497;52.222;21.246;2024-03-22T14:09:08;20.25;;;13.38;;